sensor_id;sensor_type;location;lat;lon;timestamp;P1;durP1;ratioP1;P2;durP2;ratioP2
16262;SDS011;8239;48.594;8.598;2022-08-06T00:00:49;2.35;;;1.73;;
16262;SDS011;8239;48.594;8.598;2022-08-06T00:03:16;1.80;;;1.70;;
16262;SDS011;8239;48.594;8.598;2022-08-06T00:05:43;2.30;;;1.90;;
16262;SDS011;8239;48.594;8.598;2022-08-06T00:08:10;2.03;;;1.83;;
16262;SDS011;8239;48.594;8.598;2022-08-06T00:10:37;2.03;;;1.92;;
16262;SDS011;8239;48.594;8.598;2022-08-06T00:13:04;1.95;;;1.80;;
16262;SDS011;8239;48.594;8.598;2022-08-06T00:15:33;2.10;;;1.90;;
16262;SDS011;8239;48.594;8.598;2022-08-06T00:18:00;2.80;;;1.88;;
16262;SDS011;8239;48.594;8.598;2022-08-06T00:20:27;1.83;;;1.60;;
16262;SDS011;8239;48.594;8.598;2022-08-06T00:22:54;2.50;;;1.80;;
16262;SDS011;8239;48.594;8.598;2022-08-06T00:25:21;3.17;;;1.80;;
16262;SDS011;8239;48.594;8.598;2022-08-06T00:27:48;2.90;;;2.08;;
16262;SDS011;8239;48.594;8.598;2022-08-06T00:30:15;3.17;;;1.77;;
16262;SDS011;8239;48.594;8.598;2022-08-06T00:32:44;1.88;;;1.75;;
16262;SDS011;8239;48.594;8.598;2022-08-06T00:35:11;2.00;;;1.80;;
16262;SDS011;8239;48.594;8.598;2022-08-06T00:37:38;2.40;;;1.77;;
16262;SDS011;8239;48.594;8.598;2022-08-06T00:40:05;1.75;;;1.65;;
16262;SDS011;8239;48.594;8.598;2022-08-06T00:42:33;1.70;;;1.60;;
16262;SDS011;8239;48.594;8.598;2022-08-06T00:45:00;2.58;;;1.73;;
16262;SDS011;8239;48.594;8.598;2022-08-06T00:47:29;2.22;;;2.13;;
16262;SDS011;8239;48.594;8.598;2022-08-06T00:49:57;1.60;;;1.50;;
16262;SDS011;8239;48.594;8.598;2022-08-06T00:52:24;2.58;;;2.00;;
16262;SDS011;8239;48.594;8.598;2022-08-06T00:54:51;1.98;;;1.83;;
16262;SDS011;8239;48.594;8.598;2022-08-06T00:57:18;2.92;;;1.65;;
16262;SDS011;8239;48.594;8.598;2022-08-06T00:59:45;1.80;;;1.70;;
16262;SDS011;8239;48.594;8.598;2022-08-06T01:02:12;2.00;;;1.75;;
16262;SDS011;8239;48.594;8.598;2022-08-06T01:04:39;1.90;;;1.65;;
16262;SDS011;8239;48.594;8.598;2022-08-06T01:07:08;2.05;;;1.90;;
16262;SDS011;8239;48.594;8.598;2022-08-06T01:09:35;2.63;;;1.77;;
16262;SDS011;8239;48.594;8.598;2022-08-06T01:12:02;3.10;;;1.92;;
16262;SDS011;8239;48.594;8.598;2022-08-06T01:14:31;1.98;;;1.73;;
16262;SDS011;8239;48.594;8.598;2022-08-06T01:16:59;2.50;;;2.20;;
16262;SDS011;8239;48.594;8.598;2022-08-06T01:19:46;2.80;;;2.10;;
16262;SDS011;8239;48.594;8.598;2022-08-06T01:22:31;2.83;;;2.17;;
16262;SDS011;8239;48.594;8.598;2022-08-06T01:25:13;2.00;;;1.83;;
16262;SDS011;8239;48.594;8.598;2022-08-06T01:28:04;2.08;;;1.70;;
16262;SDS011;8239;48.594;8.598;2022-08-06T01:30:37;2.00;;;1.90;;
16262;SDS011;8239;48.594;8.598;2022-08-06T01:33:11;2.00;;;1.90;;
16262;SDS011;8239;48.594;8.598;2022-08-06T01:35:44;2.55;;;2.17;;
16262;SDS011;8239;48.594;8.598;2022-08-06T01:38:16;2.97;;;1.95;;
16262;SDS011;8239;48.594;8.598;2022-08-06T01:40:48;1.88;;;1.77;;
16262;SDS011;8239;48.594;8.598;2022-08-06T01:43:19;2.72;;;1.88;;
16262;SDS011;8239;48.594;8.598;2022-08-06T01:45:48;2.08;;;1.88;;
16262;SDS011;8239;48.594;8.598;2022-08-06T01:48:18;1.83;;;1.67;;
16262;SDS011;8239;48.594;8.598;2022-08-06T01:50:48;1.95;;;1.65;;
16262;SDS011;8239;48.594;8.598;2022-08-06T01:53:23;2.65;;;1.60;;
16262;SDS011;8239;48.594;8.598;2022-08-06T01:55:55;2.00;;;1.70;;
16262;SDS011;8239;48.594;8.598;2022-08-06T01:58:28;2.17;;;1.75;;
16262;SDS011;8239;48.594;8.598;2022-08-06T02:00:58;1.70;;;1.60;;
16262;SDS011;8239;48.594;8.598;2022-08-06T02:03:28;2.00;;;1.48;;
16262;SDS011;8239;48.594;8.598;2022-08-06T02:05:58;1.73;;;1.60;;
16262;SDS011;8239;48.594;8.598;2022-08-06T02:08:29;2.03;;;1.85;;
16262;SDS011;8239;48.594;8.598;2022-08-06T02:11:00;1.92;;;1.70;;
16262;SDS011;8239;48.594;8.598;2022-08-06T02:13:31;2.83;;;1.67;;
16262;SDS011;8239;48.594;8.598;2022-08-06T02:15:59;1.75;;;1.65;;
16262;SDS011;8239;48.594;8.598;2022-08-06T02:18:29;1.70;;;1.60;;
16262;SDS011;8239;48.594;8.598;2022-08-06T02:21:02;3.00;;;1.92;;
16262;SDS011;8239;48.594;8.598;2022-08-06T02:23:32;1.67;;;1.52;;
16262;SDS011;8239;48.594;8.598;2022-08-06T02:26:00;3.33;;;1.73;;
16262;SDS011;8239;48.594;8.598;2022-08-06T02:28:30;3.22;;;1.80;;
16262;SDS011;8239;48.594;8.598;2022-08-06T02:30:59;2.65;;;1.70;;
16262;SDS011;8239;48.594;8.598;2022-08-06T02:33:27;2.70;;;1.75;;
16262;SDS011;8239;48.594;8.598;2022-08-06T02:35:57;2.53;;;1.63;;
16262;SDS011;8239;48.594;8.598;2022-08-06T02:38:31;4.25;;;1.75;;
16262;SDS011;8239;48.594;8.598;2022-08-06T02:41:07;2.78;;;1.75;;
16262;SDS011;8239;48.594;8.598;2022-08-06T02:43:40;2.75;;;1.80;;
16262;SDS011;8239;48.594;8.598;2022-08-06T02:46:14;2.10;;;1.55;;
16262;SDS011;8239;48.594;8.598;2022-08-06T02:48:46;1.90;;;1.70;;
16262;SDS011;8239;48.594;8.598;2022-08-06T02:51:17;3.50;;;1.60;;
16262;SDS011;8239;48.594;8.598;2022-08-06T02:53:53;2.20;;;1.60;;
16262;SDS011;8239;48.594;8.598;2022-08-06T02:56:25;3.03;;;1.70;;
16262;SDS011;8239;48.594;8.598;2022-08-06T02:58:56;1.90;;;1.63;;
16262;SDS011;8239;48.594;8.598;2022-08-06T03:01:26;2.17;;;1.90;;
16262;SDS011;8239;48.594;8.598;2022-08-06T03:03:57;2.20;;;1.70;;
16262;SDS011;8239;48.594;8.598;2022-08-06T03:06:26;1.80;;;1.70;;
16262;SDS011;8239;48.594;8.598;2022-08-06T03:08:55;3.58;;;1.70;;
16262;SDS011;8239;48.594;8.598;2022-08-06T03:11:23;1.88;;;1.63;;
16262;SDS011;8239;48.594;8.598;2022-08-06T03:13:52;1.75;;;1.63;;
16262;SDS011;8239;48.594;8.598;2022-08-06T03:16:22;3.13;;;1.80;;
16262;SDS011;8239;48.594;8.598;2022-08-06T03:18:50;2.83;;;1.80;;
16262;SDS011;8239;48.594;8.598;2022-08-06T03:21:20;1.85;;;1.70;;
16262;SDS011;8239;48.594;8.598;2022-08-06T03:23:49;1.67;;;1.58;;
16262;SDS011;8239;48.594;8.598;2022-08-06T03:26:17;2.78;;;1.65;;
16262;SDS011;8239;48.594;8.598;2022-08-06T03:28:45;2.03;;;1.75;;
16262;SDS011;8239;48.594;8.598;2022-08-06T03:31:12;2.38;;;1.58;;
16262;SDS011;8239;48.594;8.598;2022-08-06T03:33:41;3.85;;;1.70;;
16262;SDS011;8239;48.594;8.598;2022-08-06T03:36:09;1.75;;;1.65;;
16262;SDS011;8239;48.594;8.598;2022-08-06T03:38:38;1.95;;;1.85;;
16262;SDS011;8239;48.594;8.598;2022-08-06T03:41:07;3.90;;;1.80;;
16262;SDS011;8239;48.594;8.598;2022-08-06T03:43:35;2.65;;;1.85;;
16262;SDS011;8239;48.594;8.598;2022-08-06T03:46:02;3.95;;;1.90;;
16262;SDS011;8239;48.594;8.598;2022-08-06T03:48:33;3.40;;;1.80;;
16262;SDS011;8239;48.594;8.598;2022-08-06T03:51:05;3.75;;;1.80;;
16262;SDS011;8239;48.594;8.598;2022-08-06T03:53:38;2.22;;;1.77;;
16262;SDS011;8239;48.594;8.598;2022-08-06T03:56:08;7.53;;;1.85;;
16262;SDS011;8239;48.594;8.598;2022-08-06T03:58:37;2.33;;;1.77;;
16262;SDS011;8239;48.594;8.598;2022-08-06T04:01:11;2.78;;;1.83;;
16262;SDS011;8239;48.594;8.598;2022-08-06T04:03:46;2.65;;;1.73;;
16262;SDS011;8239;48.594;8.598;2022-08-06T04:06:16;3.45;;;1.80;;
16262;SDS011;8239;48.594;8.598;2022-08-06T04:08:45;3.58;;;1.92;;
16262;SDS011;8239;48.594;8.598;2022-08-06T04:11:13;1.75;;;1.65;;
16262;SDS011;8239;48.594;8.598;2022-08-06T04:13:41;2.58;;;1.80;;
16262;SDS011;8239;48.594;8.598;2022-08-06T04:16:10;2.33;;;2.10;;
16262;SDS011;8239;48.594;8.598;2022-08-06T04:18:38;2.08;;;1.70;;
16262;SDS011;8239;48.594;8.598;2022-08-06T04:21:09;3.20;;;1.73;;
16262;SDS011;8239;48.594;8.598;2022-08-06T04:23:42;3.42;;;1.80;;
16262;SDS011;8239;48.594;8.598;2022-08-06T04:26:09;2.42;;;2.22;;
16262;SDS011;8239;48.594;8.598;2022-08-06T04:28:40;3.05;;;1.90;;
16262;SDS011;8239;48.594;8.598;2022-08-06T04:31:09;2.00;;;1.73;;
16262;SDS011;8239;48.594;8.598;2022-08-06T04:33:37;2.63;;;1.73;;
16262;SDS011;8239;48.594;8.598;2022-08-06T04:36:06;2.28;;;1.80;;
16262;SDS011;8239;48.594;8.598;2022-08-06T04:38:34;3.05;;;1.92;;
16262;SDS011;8239;48.594;8.598;2022-08-06T04:41:03;1.85;;;1.73;;
16262;SDS011;8239;48.594;8.598;2022-08-06T04:43:31;1.75;;;1.65;;
16262;SDS011;8239;48.594;8.598;2022-08-06T04:45:58;3.33;;;1.80;;
16262;SDS011;8239;48.594;8.598;2022-08-06T04:48:26;5.28;;;1.88;;
16262;SDS011;8239;48.594;8.598;2022-08-06T04:50:54;2.20;;;1.67;;
16262;SDS011;8239;48.594;8.598;2022-08-06T04:53:21;2.13;;;1.92;;
16262;SDS011;8239;48.594;8.598;2022-08-06T04:55:48;2.30;;;2.00;;
16262;SDS011;8239;48.594;8.598;2022-08-06T04:58:17;2.35;;;1.90;;
16262;SDS011;8239;48.594;8.598;2022-08-06T05:00:45;3.20;;;1.80;;
16262;SDS011;8239;48.594;8.598;2022-08-06T05:03:13;2.28;;;2.00;;
16262;SDS011;8239;48.594;8.598;2022-08-06T05:05:42;1.75;;;1.65;;
16262;SDS011;8239;48.594;8.598;2022-08-06T05:08:13;2.72;;;2.10;;
16262;SDS011;8239;48.594;8.598;2022-08-06T05:10:43;2.75;;;2.00;;
16262;SDS011;8239;48.594;8.598;2022-08-06T05:13:14;2.33;;;1.90;;
16262;SDS011;8239;48.594;8.598;2022-08-06T05:15:45;3.22;;;2.08;;
16262;SDS011;8239;48.594;8.598;2022-08-06T05:18:19;3.15;;;1.98;;
16262;SDS011;8239;48.594;8.598;2022-08-06T05:20:51;2.83;;;1.77;;
16262;SDS011;8239;48.594;8.598;2022-08-06T05:23:20;3.40;;;1.90;;
16262;SDS011;8239;48.594;8.598;2022-08-06T05:25:51;2.95;;;1.83;;
16262;SDS011;8239;48.594;8.598;2022-08-06T05:28:20;2.53;;;1.80;;
16262;SDS011;8239;48.594;8.598;2022-08-06T05:30:47;2.00;;;1.90;;
16262;SDS011;8239;48.594;8.598;2022-08-06T05:33:21;2.28;;;2.08;;
16262;SDS011;8239;48.594;8.598;2022-08-06T05:35:49;1.92;;;1.73;;
16262;SDS011;8239;48.594;8.598;2022-08-06T05:38:17;3.15;;;1.90;;
16262;SDS011;8239;48.594;8.598;2022-08-06T05:40:44;2.65;;;1.80;;
16262;SDS011;8239;48.594;8.598;2022-08-06T05:43:11;1.85;;;1.75;;
16262;SDS011;8239;48.594;8.598;2022-08-06T05:45:42;3.22;;;2.00;;
16262;SDS011;8239;48.594;8.598;2022-08-06T05:48:17;2.58;;;1.83;;
16262;SDS011;8239;48.594;8.598;2022-08-06T05:50:47;3.00;;;1.90;;
16262;SDS011;8239;48.594;8.598;2022-08-06T05:53:17;3.10;;;1.90;;
16262;SDS011;8239;48.594;8.598;2022-08-06T05:55:50;3.90;;;1.92;;
16262;SDS011;8239;48.594;8.598;2022-08-06T05:58:23;2.50;;;1.90;;
16262;SDS011;8239;48.594;8.598;2022-08-06T06:00:54;2.20;;;1.80;;
16262;SDS011;8239;48.594;8.598;2022-08-06T06:03:26;3.10;;;2.10;;
16262;SDS011;8239;48.594;8.598;2022-08-06T06:05:54;2.70;;;2.20;;
16262;SDS011;8239;48.594;8.598;2022-08-06T06:08:21;2.20;;;2.00;;
16262;SDS011;8239;48.594;8.598;2022-08-06T06:10:49;1.98;;;1.80;;
16262;SDS011;8239;48.594;8.598;2022-08-06T06:13:17;2.47;;;2.08;;
16262;SDS011;8239;48.594;8.598;2022-08-06T06:15:47;3.60;;;1.92;;
16262;SDS011;8239;48.594;8.598;2022-08-06T06:18:21;2.15;;;1.95;;
16262;SDS011;8239;48.594;8.598;2022-08-06T06:20:57;3.08;;;2.10;;
16262;SDS011;8239;48.594;8.598;2022-08-06T06:23:32;3.15;;;2.00;;
16262;SDS011;8239;48.594;8.598;2022-08-06T06:26:15;2.28;;;1.80;;
16262;SDS011;8239;48.594;8.598;2022-08-06T06:28:49;3.08;;;1.70;;
16262;SDS011;8239;48.594;8.598;2022-08-06T06:31:22;3.03;;;2.05;;
16262;SDS011;8239;48.594;8.598;2022-08-06T06:33:58;2.88;;;1.85;;
16262;SDS011;8239;48.594;8.598;2022-08-06T06:36:32;3.22;;;2.00;;
16262;SDS011;8239;48.594;8.598;2022-08-06T06:39:05;2.53;;;2.33;;
16262;SDS011;8239;48.594;8.598;2022-08-06T06:41:39;2.50;;;2.08;;
16262;SDS011;8239;48.594;8.598;2022-08-06T06:44:13;3.88;;;2.10;;
16262;SDS011;8239;48.594;8.598;2022-08-06T06:46:45;2.22;;;1.88;;
16262;SDS011;8239;48.594;8.598;2022-08-06T06:49:18;4.10;;;2.22;;
16262;SDS011;8239;48.594;8.598;2022-08-06T06:51:51;1.83;;;1.73;;
16262;SDS011;8239;48.594;8.598;2022-08-06T06:54:23;3.92;;;2.10;;
16262;SDS011;8239;48.594;8.598;2022-08-06T06:56:54;2.28;;;2.03;;
16262;SDS011;8239;48.594;8.598;2022-08-06T06:59:23;2.35;;;2.15;;
16262;SDS011;8239;48.594;8.598;2022-08-06T07:02:03;3.45;;;1.90;;
16262;SDS011;8239;48.594;8.598;2022-08-06T07:04:34;4.32;;;2.45;;
16262;SDS011;8239;48.594;8.598;2022-08-06T07:07:02;2.78;;;1.83;;
16262;SDS011;8239;48.594;8.598;2022-08-06T07:09:31;2.67;;;2.10;;
16262;SDS011;8239;48.594;8.598;2022-08-06T07:12:01;2.85;;;1.92;;
16262;SDS011;8239;48.594;8.598;2022-08-06T07:14:30;3.88;;;2.10;;
16262;SDS011;8239;48.594;8.598;2022-08-06T07:17:01;1.75;;;1.55;;
16262;SDS011;8239;48.594;8.598;2022-08-06T07:19:29;2.15;;;1.63;;
16262;SDS011;8239;48.594;8.598;2022-08-06T07:22:00;3.10;;;1.80;;
16262;SDS011;8239;48.594;8.598;2022-08-06T07:24:28;2.45;;;1.90;;
16262;SDS011;8239;48.594;8.598;2022-08-06T07:26:59;2.92;;;1.85;;
16262;SDS011;8239;48.594;8.598;2022-08-06T07:29:27;2.95;;;1.70;;
16262;SDS011;8239;48.594;8.598;2022-08-06T07:31:56;2.42;;;1.70;;
16262;SDS011;8239;48.594;8.598;2022-08-06T07:34:26;2.17;;;1.80;;
16262;SDS011;8239;48.594;8.598;2022-08-06T07:36:53;3.13;;;1.88;;
16262;SDS011;8239;48.594;8.598;2022-08-06T07:39:24;2.38;;;2.15;;
16262;SDS011;8239;48.594;8.598;2022-08-06T07:41:55;4.03;;;2.10;;
16262;SDS011;8239;48.594;8.598;2022-08-06T07:44:23;3.42;;;2.00;;
16262;SDS011;8239;48.594;8.598;2022-08-06T07:46:53;2.40;;;1.90;;
16262;SDS011;8239;48.594;8.598;2022-08-06T07:49:23;2.60;;;1.60;;
16262;SDS011;8239;48.594;8.598;2022-08-06T07:51:55;2.53;;;1.60;;
16262;SDS011;8239;48.594;8.598;2022-08-06T07:54:25;2.25;;;1.70;;
16262;SDS011;8239;48.594;8.598;2022-08-06T07:56:55;2.65;;;1.88;;
16262;SDS011;8239;48.594;8.598;2022-08-06T07:59:23;1.98;;;1.70;;
16262;SDS011;8239;48.594;8.598;2022-08-06T08:01:51;2.08;;;1.88;;
16262;SDS011;8239;48.594;8.598;2022-08-06T08:04:18;1.95;;;1.80;;
16262;SDS011;8239;48.594;8.598;2022-08-06T08:07:04;1.83;;;1.70;;
16262;SDS011;8239;48.594;8.598;2022-08-06T08:09:35;3.70;;;1.70;;
16262;SDS011;8239;48.594;8.598;2022-08-06T08:12:04;1.98;;;1.80;;
16262;SDS011;8239;48.594;8.598;2022-08-06T08:14:32;2.53;;;1.70;;
16262;SDS011;8239;48.594;8.598;2022-08-06T08:17:00;2.83;;;1.80;;
16262;SDS011;8239;48.594;8.598;2022-08-06T08:19:28;2.30;;;1.60;;
16262;SDS011;8239;48.594;8.598;2022-08-06T08:21:57;2.05;;;1.40;;
16262;SDS011;8239;48.594;8.598;2022-08-06T08:24:25;2.95;;;1.50;;
16262;SDS011;8239;48.594;8.598;2022-08-06T08:26:54;2.08;;;1.60;;
16262;SDS011;8239;48.594;8.598;2022-08-06T08:29:22;1.50;;;1.35;;
16262;SDS011;8239;48.594;8.598;2022-08-06T08:31:49;1.45;;;1.15;;
16262;SDS011;8239;48.594;8.598;2022-08-06T08:34:16;1.88;;;1.60;;
16262;SDS011;8239;48.594;8.598;2022-08-06T08:36:43;1.60;;;1.50;;
16262;SDS011;8239;48.594;8.598;2022-08-06T08:39:10;3.05;;;1.60;;
16262;SDS011;8239;48.594;8.598;2022-08-06T08:41:40;2.25;;;1.50;;
16262;SDS011;8239;48.594;8.598;2022-08-06T08:44:13;2.00;;;1.60;;
16262;SDS011;8239;48.594;8.598;2022-08-06T08:46:47;1.48;;;1.38;;
16262;SDS011;8239;48.594;8.598;2022-08-06T08:49:16;1.70;;;1.60;;
16262;SDS011;8239;48.594;8.598;2022-08-06T08:51:46;1.77;;;1.60;;
16262;SDS011;8239;48.594;8.598;2022-08-06T08:54:16;2.30;;;1.50;;
16262;SDS011;8239;48.594;8.598;2022-08-06T08:56:47;1.92;;;1.80;;
16262;SDS011;8239;48.594;8.598;2022-08-06T08:59:16;1.52;;;1.40;;
16262;SDS011;8239;48.594;8.598;2022-08-06T09:01:44;1.80;;;1.70;;
16262;SDS011;8239;48.594;8.598;2022-08-06T09:04:12;1.60;;;1.50;;
16262;SDS011;8239;48.594;8.598;2022-08-06T09:06:39;1.50;;;1.40;;
16262;SDS011;8239;48.594;8.598;2022-08-06T09:09:07;1.60;;;1.38;;
16262;SDS011;8239;48.594;8.598;2022-08-06T09:11:34;2.08;;;1.48;;
16262;SDS011;8239;48.594;8.598;2022-08-06T09:14:03;1.67;;;1.58;;
16262;SDS011;8239;48.594;8.598;2022-08-06T09:16:32;3.15;;;1.50;;
16262;SDS011;8239;48.594;8.598;2022-08-06T09:19:00;1.60;;;1.50;;
16262;SDS011;8239;48.594;8.598;2022-08-06T09:21:29;2.92;;;1.50;;
16262;SDS011;8239;48.594;8.598;2022-08-06T09:23:56;1.70;;;1.30;;
16262;SDS011;8239;48.594;8.598;2022-08-06T09:26:24;1.50;;;1.40;;
16262;SDS011;8239;48.594;8.598;2022-08-06T09:28:52;2.05;;;1.70;;
16262;SDS011;8239;48.594;8.598;2022-08-06T09:31:19;2.75;;;1.63;;
16262;SDS011;8239;48.594;8.598;2022-08-06T09:33:55;3.20;;;1.60;;
16262;SDS011;8239;48.594;8.598;2022-08-06T09:36:23;1.50;;;1.40;;
16262;SDS011;8239;48.594;8.598;2022-08-06T09:38:51;1.77;;;1.58;;
16262;SDS011;8239;48.594;8.598;2022-08-06T09:41:19;1.60;;;1.50;;
16262;SDS011;8239;48.594;8.598;2022-08-06T09:43:48;1.67;;;1.52;;
16262;SDS011;8239;48.594;8.598;2022-08-06T09:46:16;2.42;;;2.03;;
16262;SDS011;8239;48.594;8.598;2022-08-06T09:48:58;1.73;;;1.55;;
16262;SDS011;8239;48.594;8.598;2022-08-06T09:51:26;2.95;;;1.83;;
16262;SDS011;8239;48.594;8.598;2022-08-06T09:53:55;3.08;;;2.00;;
16262;SDS011;8239;48.594;8.598;2022-08-06T09:56:23;2.00;;;1.80;;
16262;SDS011;8239;48.594;8.598;2022-08-06T09:58:56;2.40;;;1.30;;
16262;SDS011;8239;48.594;8.598;2022-08-06T10:01:24;2.88;;;1.40;;
16262;SDS011;8239;48.594;8.598;2022-08-06T10:03:52;2.72;;;1.40;;
16262;SDS011;8239;48.594;8.598;2022-08-06T10:06:22;1.85;;;1.45;;
16262;SDS011;8239;48.594;8.598;2022-08-06T10:09:04;1.77;;;1.50;;
16262;SDS011;8239;48.594;8.598;2022-08-06T10:11:34;3.30;;;1.75;;
16262;SDS011;8239;48.594;8.598;2022-08-06T10:14:03;3.65;;;1.52;;
16262;SDS011;8239;48.594;8.598;2022-08-06T10:16:31;1.70;;;1.40;;
16262;SDS011;8239;48.594;8.598;2022-08-06T10:18:59;1.33;;;1.23;;
16262;SDS011;8239;48.594;8.598;2022-08-06T10:21:30;3.20;;;1.58;;
16262;SDS011;8239;48.594;8.598;2022-08-06T10:24:00;1.95;;;1.52;;
16262;SDS011;8239;48.594;8.598;2022-08-06T10:26:29;2.40;;;1.50;;
16262;SDS011;8239;48.594;8.598;2022-08-06T10:29:00;1.52;;;1.40;;
16262;SDS011;8239;48.594;8.598;2022-08-06T10:31:28;2.13;;;1.55;;
16262;SDS011;8239;48.594;8.598;2022-08-06T10:33:58;1.75;;;1.65;;
16262;SDS011;8239;48.594;8.598;2022-08-06T10:36:26;2.65;;;1.90;;
16262;SDS011;8239;48.594;8.598;2022-08-06T10:38:58;1.65;;;1.50;;
16262;SDS011;8239;48.594;8.598;2022-08-06T10:41:25;3.55;;;1.60;;
16262;SDS011;8239;48.594;8.598;2022-08-06T10:43:54;2.55;;;1.52;;
16262;SDS011;8239;48.594;8.598;2022-08-06T10:46:21;2.95;;;1.73;;
16262;SDS011;8239;48.594;8.598;2022-08-06T10:48:49;3.28;;;1.67;;
16262;SDS011;8239;48.594;8.598;2022-08-06T10:51:18;1.60;;;1.50;;
16262;SDS011;8239;48.594;8.598;2022-08-06T10:53:47;1.95;;;1.70;;
16262;SDS011;8239;48.594;8.598;2022-08-06T10:56:15;2.05;;;1.83;;
16262;SDS011;8239;48.594;8.598;2022-08-06T10:58:42;2.10;;;2.00;;
16262;SDS011;8239;48.594;8.598;2022-08-06T11:01:10;2.78;;;1.80;;
16262;SDS011;8239;48.594;8.598;2022-08-06T11:03:47;3.38;;;1.77;;
16262;SDS011;8239;48.594;8.598;2022-08-06T11:09:39;3.20;;;1.70;;
16262;SDS011;8239;48.594;8.598;2022-08-06T11:12:23;1.88;;;1.40;;
16262;SDS011;8239;48.594;8.598;2022-08-06T11:15:00;1.80;;;1.70;;
16262;SDS011;8239;48.594;8.598;2022-08-06T11:17:40;1.48;;;1.48;;
16262;SDS011;8239;48.594;8.598;2022-08-06T11:20:19;1.52;;;1.42;;
16262;SDS011;8239;48.594;8.598;2022-08-06T11:23:02;1.88;;;1.65;;
16262;SDS011;8239;48.594;8.598;2022-08-06T11:25:38;1.88;;;1.45;;
16262;SDS011;8239;48.594;8.598;2022-08-06T11:28:06;2.00;;;1.80;;
16262;SDS011;8239;48.594;8.598;2022-08-06T11:30:37;2.05;;;1.60;;
16262;SDS011;8239;48.594;8.598;2022-08-06T11:33:06;1.60;;;1.50;;
16262;SDS011;8239;48.594;8.598;2022-08-06T11:35:46;2.00;;;1.65;;
16262;SDS011;8239;48.594;8.598;2022-08-06T11:38:14;2.28;;;1.70;;
16262;SDS011;8239;48.594;8.598;2022-08-06T11:40:59;1.80;;;1.70;;
16262;SDS011;8239;48.594;8.598;2022-08-06T11:43:46;2.70;;;1.90;;
16262;SDS011;8239;48.594;8.598;2022-08-06T11:46:18;2.03;;;1.80;;
16262;SDS011;8239;48.594;8.598;2022-08-06T11:51:44;2.85;;;1.60;;
16262;SDS011;8239;48.594;8.598;2022-08-06T11:54:13;2.35;;;1.67;;
16262;SDS011;8239;48.594;8.598;2022-08-06T12:02:45;2.50;;;1.80;;
16262;SDS011;8239;48.594;8.598;2022-08-06T12:05:37;3.35;;;2.08;;
16262;SDS011;8239;48.594;8.598;2022-08-06T12:08:22;2.10;;;1.90;;
16262;SDS011;8239;48.594;8.598;2022-08-06T12:14:02;2.00;;;1.70;;
16262;SDS011;8239;48.594;8.598;2022-08-06T12:16:31;1.98;;;1.42;;
16262;SDS011;8239;48.594;8.598;2022-08-06T12:19:00;1.95;;;1.42;;
16262;SDS011;8239;48.594;8.598;2022-08-06T12:21:28;2.13;;;1.58;;
16262;SDS011;8239;48.594;8.598;2022-08-06T12:23:56;4.43;;;1.90;;
16262;SDS011;8239;48.594;8.598;2022-08-06T12:26:23;1.70;;;1.60;;
16262;SDS011;8239;48.594;8.598;2022-08-06T12:28:59;1.60;;;1.50;;
16262;SDS011;8239;48.594;8.598;2022-08-06T12:31:34;1.70;;;1.60;;
16262;SDS011;8239;48.594;8.598;2022-08-06T12:34:02;1.70;;;1.60;;
16262;SDS011;8239;48.594;8.598;2022-08-06T12:36:31;2.15;;;1.80;;
16262;SDS011;8239;48.594;8.598;2022-08-06T12:39:00;2.38;;;1.63;;
16262;SDS011;8239;48.594;8.598;2022-08-06T12:41:33;1.85;;;1.60;;
16262;SDS011;8239;48.594;8.598;2022-08-06T12:44:03;3.70;;;1.63;;
16262;SDS011;8239;48.594;8.598;2022-08-06T12:46:31;3.47;;;1.80;;
16262;SDS011;8239;48.594;8.598;2022-08-06T12:48:58;1.60;;;1.50;;
16262;SDS011;8239;48.594;8.598;2022-08-06T12:51:26;1.60;;;1.42;;
16262;SDS011;8239;48.594;8.598;2022-08-06T12:53:55;1.98;;;1.52;;
16262;SDS011;8239;48.594;8.598;2022-08-06T12:56:25;1.67;;;1.58;;
16262;SDS011;8239;48.594;8.598;2022-08-06T12:58:53;2.58;;;1.90;;
16262;SDS011;8239;48.594;8.598;2022-08-06T13:01:24;2.45;;;1.50;;
16262;SDS011;8239;48.594;8.598;2022-08-06T13:03:53;1.63;;;1.52;;
16262;SDS011;8239;48.594;8.598;2022-08-06T13:06:23;1.60;;;1.50;;
16262;SDS011;8239;48.594;8.598;2022-08-06T13:08:52;3.15;;;1.50;;
16262;SDS011;8239;48.594;8.598;2022-08-06T13:11:28;2.67;;;1.45;;
16262;SDS011;8239;48.594;8.598;2022-08-06T13:13:56;3.28;;;1.75;;
16262;SDS011;8239;48.594;8.598;2022-08-06T13:16:36;1.50;;;1.38;;
16262;SDS011;8239;48.594;8.598;2022-08-06T13:19:08;3.20;;;1.52;;
16262;SDS011;8239;48.594;8.598;2022-08-06T13:21:36;1.40;;;1.30;;
16262;SDS011;8239;48.594;8.598;2022-08-06T13:24:04;1.63;;;1.52;;
16262;SDS011;8239;48.594;8.598;2022-08-06T13:26:33;1.55;;;1.45;;
16262;SDS011;8239;48.594;8.598;2022-08-06T13:29:12;1.50;;;1.40;;
16262;SDS011;8239;48.594;8.598;2022-08-06T13:31:42;1.50;;;1.35;;
16262;SDS011;8239;48.594;8.598;2022-08-06T13:34:10;2.88;;;1.50;;
16262;SDS011;8239;48.594;8.598;2022-08-06T13:36:39;5.57;;;1.50;;
16262;SDS011;8239;48.594;8.598;2022-08-06T13:39:17;2.17;;;1.27;;
16262;SDS011;8239;48.594;8.598;2022-08-06T13:41:45;2.83;;;1.50;;
16262;SDS011;8239;48.594;8.598;2022-08-06T13:47:00;3.72;;;1.30;;
16262;SDS011;8239;48.594;8.598;2022-08-06T13:49:28;3.58;;;1.40;;
16262;SDS011;8239;48.594;8.598;2022-08-06T13:51:56;2.58;;;1.50;;
16262;SDS011;8239;48.594;8.598;2022-08-06T13:54:23;1.67;;;1.42;;
16262;SDS011;8239;48.594;8.598;2022-08-06T13:56:52;2.25;;;1.42;;
16262;SDS011;8239;48.594;8.598;2022-08-06T13:59:20;1.83;;;1.40;;
16262;SDS011;8239;48.594;8.598;2022-08-06T14:01:48;2.58;;;1.40;;
16262;SDS011;8239;48.594;8.598;2022-08-06T14:04:18;1.70;;;1.60;;
16262;SDS011;8239;48.594;8.598;2022-08-06T14:06:47;1.83;;;1.58;;
16262;SDS011;8239;48.594;8.598;2022-08-06T14:09:16;1.60;;;1.40;;
16262;SDS011;8239;48.594;8.598;2022-08-06T14:11:44;3.33;;;1.80;;
16262;SDS011;8239;48.594;8.598;2022-08-06T14:14:12;1.48;;;1.40;;
16262;SDS011;8239;48.594;8.598;2022-08-06T14:16:39;1.52;;;1.42;;
16262;SDS011;8239;48.594;8.598;2022-08-06T14:19:06;2.75;;;1.70;;
16262;SDS011;8239;48.594;8.598;2022-08-06T14:21:35;1.50;;;1.40;;
16262;SDS011;8239;48.594;8.598;2022-08-06T14:24:03;2.25;;;1.60;;
16262;SDS011;8239;48.594;8.598;2022-08-06T14:26:30;1.83;;;1.50;;
16262;SDS011;8239;48.594;8.598;2022-08-06T14:28:57;2.00;;;1.40;;
16262;SDS011;8239;48.594;8.598;2022-08-06T14:31:26;3.05;;;1.40;;
16262;SDS011;8239;48.594;8.598;2022-08-06T14:33:53;2.58;;;1.50;;
16262;SDS011;8239;48.594;8.598;2022-08-06T14:36:20;3.20;;;1.55;;
16262;SDS011;8239;48.594;8.598;2022-08-06T14:38:49;2.28;;;1.52;;
16262;SDS011;8239;48.594;8.598;2022-08-06T14:41:16;1.50;;;1.42;;
16262;SDS011;8239;48.594;8.598;2022-08-06T14:44:00;1.58;;;1.38;;
16262;SDS011;8239;48.594;8.598;2022-08-06T14:46:44;1.27;;;1.27;;
16262;SDS011;8239;48.594;8.598;2022-08-06T14:49:12;1.48;;;1.38;;
16262;SDS011;8239;48.594;8.598;2022-08-06T14:51:39;1.83;;;1.50;;
16262;SDS011;8239;48.594;8.598;2022-08-06T14:54:07;1.80;;;1.70;;
16262;SDS011;8239;48.594;8.598;2022-08-06T14:56:34;3.63;;;1.70;;
16262;SDS011;8239;48.594;8.598;2022-08-06T14:59:01;2.20;;;1.70;;
16262;SDS011;8239;48.594;8.598;2022-08-06T15:01:30;1.60;;;1.50;;
16262;SDS011;8239;48.594;8.598;2022-08-06T15:03:57;1.60;;;1.50;;
16262;SDS011;8239;48.594;8.598;2022-08-06T15:06:24;1.42;;;1.40;;
16262;SDS011;8239;48.594;8.598;2022-08-06T15:08:51;1.50;;;1.40;;
16262;SDS011;8239;48.594;8.598;2022-08-06T15:11:19;2.25;;;1.58;;
16262;SDS011;8239;48.594;8.598;2022-08-06T15:13:46;2.42;;;1.40;;
16262;SDS011;8239;48.594;8.598;2022-08-06T15:16:13;1.55;;;1.45;;
16262;SDS011;8239;48.594;8.598;2022-08-06T15:18:40;1.70;;;1.60;;
16262;SDS011;8239;48.594;8.598;2022-08-06T15:21:08;1.60;;;1.50;;
16262;SDS011;8239;48.594;8.598;2022-08-06T15:23:36;1.33;;;1.33;;
16262;SDS011;8239;48.594;8.598;2022-08-06T15:26:03;3.17;;;1.60;;
16262;SDS011;8239;48.594;8.598;2022-08-06T15:28:31;1.80;;;1.50;;
16262;SDS011;8239;48.594;8.598;2022-08-06T15:30:58;2.63;;;1.70;;
16262;SDS011;8239;48.594;8.598;2022-08-06T15:33:26;2.35;;;1.60;;
16262;SDS011;8239;48.594;8.598;2022-08-06T15:35:53;1.88;;;1.65;;